createdAt,value
2019-04-21T00:00:54.205Z,16.60
2019-04-21T00:03:25.851Z,16.50
2019-04-21T00:06:13.971Z,15.63
2019-04-21T00:08:41.885Z,17.23
2019-04-21T00:11:18.439Z,16.87
2019-04-21T00:13:39.432Z,16.70
2019-04-21T00:16:02.458Z,18.00
2019-04-21T00:18:54.879Z,17.20
2019-04-21T00:21:26.899Z,18.37
2019-04-21T00:24:22.754Z,19.73
2019-04-21T00:26:57.847Z,20.43
2019-04-21T00:29:38.333Z,21.50
2019-04-21T00:32:03.050Z,21.83
2019-04-21T00:34:17.782Z,22.53
2019-04-21T00:37:01.206Z,23.80
2019-04-21T00:39:48.966Z,24.63
2019-04-21T00:42:11.221Z,23.57
2019-04-21T00:44:33.194Z,23.90
2019-04-21T00:47:18.001Z,24.33
2019-04-21T00:49:53.906Z,24.43
2019-04-21T00:52:56.306Z,24.63
2019-04-21T00:58:03.512Z,25.95
2019-04-21T01:00:27.360Z,25.80
2019-04-21T01:03:01.921Z,25.90
2019-04-21T01:05:38.531Z,24.30
2019-04-21T01:08:09.949Z,21.27
2019-04-21T01:10:28.689Z,21.73
2019-04-21T01:13:18.447Z,21.37
2019-04-21T01:15:43.579Z,21.37
2019-04-21T01:18:09.011Z,24.43
2019-04-21T01:20:23.419Z,23.50
2019-04-21T01:22:53.756Z,23.53
2019-04-21T01:25:34.689Z,24.98
2019-04-21T01:28:15.139Z,24.03
2019-04-21T01:30:44.851Z,24.43
2019-04-21T01:33:21.676Z,23.27
2019-04-21T01:35:48.536Z,21.73
2019-04-21T01:38:32.759Z,22.98
2019-04-21T01:40:52.738Z,22.10
2019-04-21T01:43:23.420Z,22.07
2019-04-21T01:45:53.942Z,22.83
2019-04-21T01:48:24.558Z,21.83
2019-04-21T01:50:56.763Z,22.63
2019-04-21T01:53:56.483Z,21.37
2019-04-21T01:56:46.542Z,21.87
2019-04-21T01:59:06.971Z,21.83
2019-04-21T02:01:57.548Z,22.23
2019-04-21T02:04:30.592Z,21.33
2019-04-21T02:06:57.259Z,21.63
2019-04-21T02:09:33.688Z,20.73
2019-04-21T02:12:12.313Z,20.43
2019-04-21T02:14:46.086Z,20.87
2019-04-21T02:17:15.113Z,21.10
2019-04-21T02:19:39.627Z,20.47
2019-04-21T02:22:10.790Z,20.03
2019-04-21T02:24:49.907Z,19.23
2019-04-21T02:27:21.833Z,19.40
2019-04-21T02:29:55.871Z,20.12
2019-04-21T02:32:37.087Z,20.37
2019-04-21T02:35:17.717Z,18.83
2019-04-21T02:37:55.518Z,19.73
2019-04-21T02:40:25.689Z,19.23
2019-04-21T02:42:50.894Z,18.90
2019-04-21T02:45:09.461Z,18.00
2019-04-21T02:47:48.598Z,18.75
2019-04-21T02:50:25.914Z,18.33
2019-04-21T02:52:43.506Z,18.73
2019-04-21T02:57:49.461Z,18.47
2019-04-21T03:00:40.581Z,19.23
2019-04-21T03:03:32.032Z,20.23
2019-04-21T03:13:41.139Z,18.83
2019-04-21T03:16:25.952Z,19.57
2019-04-21T03:18:50.377Z,21.30
2019-04-21T03:26:28.950Z,18.87
2019-04-21T03:29:12.647Z,19.50
2019-04-21T03:32:25.804Z,20.90
2019-04-21T03:36:59.737Z,20.03
2019-04-21T03:38:57.024Z,19.32
2019-04-21T03:41:43.998Z,20.00
2019-04-21T03:44:11.958Z,19.80
2019-04-21T03:49:11.813Z,20.97
2019-04-21T03:51:48.316Z,20.55
2019-04-21T03:54:07.712Z,20.63
2019-04-21T03:59:14.222Z,21.13
2019-04-21T04:01:58.363Z,20.03
2019-04-21T04:04:53.011Z,20.53
2019-04-21T04:08:04.948Z,19.70
2019-04-21T04:10:22.919Z,21.23
2019-04-21T04:15:31.018Z,20.55
2019-04-21T04:17:54.686Z,20.43
2019-04-21T04:20:28.279Z,20.60
2019-04-21T04:23:02.807Z,20.43
2019-04-21T04:25:27.795Z,20.13
2019-04-21T04:28:14.277Z,19.50
2019-04-21T04:33:12.896Z,19.63
2019-04-21T04:38:13.475Z,19.87
2019-04-21T04:40:57.539Z,20.43
2019-04-21T04:45:55.194Z,19.80
2019-04-21T04:53:44.259Z,19.52
2019-04-21T04:58:56.365Z,18.37
2019-04-21T05:01:13.799Z,20.17
2019-04-21T05:11:40.224Z,19.37
2019-04-21T05:16:41.153Z,18.67
2019-04-21T05:19:10.273Z,18.90
2019-04-21T05:23:57.147Z,18.87
2019-04-21T05:26:28.610Z,18.90
2019-04-21T05:28:55.503Z,18.73
2019-04-21T05:31:52.415Z,18.47
2019-04-21T05:34:22.361Z,18.83
2019-04-21T05:37:07.530Z,18.00
2019-04-21T05:39:41.996Z,20.20
2019-04-21T05:42:06.407Z,19.50
2019-04-21T05:44:59.914Z,19.07
2019-04-21T05:47:26.297Z,19.10
2019-04-21T05:50:06.450Z,19.03
2019-04-21T05:52:44.919Z,17.30
2019-04-21T05:55:33.414Z,17.90
2019-04-21T05:57:59.920Z,17.33
2019-04-21T06:00:55.877Z,16.67
2019-04-21T06:03:04.275Z,16.67
2019-04-21T06:05:48.752Z,15.20
2019-04-21T06:08:09.744Z,14.77
2019-04-21T06:10:43.681Z,14.50
2019-04-21T06:15:54.680Z,15.20
2019-04-21T06:18:20.169Z,14.70
2019-04-21T06:20:46.699Z,14.27
2019-04-21T06:23:20.915Z,13.80
2019-04-21T06:26:08.770Z,13.70
2019-04-21T06:28:19.198Z,13.37
2019-04-21T06:31:02.361Z,14.47
2019-04-21T06:33:28.336Z,14.13
2019-04-21T06:36:23.949Z,14.03
2019-04-21T06:44:12.888Z,13.57
2019-04-21T06:46:38.000Z,13.57
2019-04-21T06:49:01.264Z,13.10
2019-04-21T06:51:32.279Z,13.50
2019-04-21T06:54:03.552Z,13.17
2019-04-21T06:56:40.945Z,13.53
2019-04-21T06:59:06.945Z,14.00
2019-04-21T07:01:44.578Z,13.63
2019-04-21T07:04:18.463Z,13.43
2019-04-21T07:11:44.101Z,12.90
2019-04-21T07:16:51.059Z,12.93
2019-04-21T07:21:54.149Z,12.93
2019-04-21T07:24:25.087Z,11.28
2019-04-21T07:27:00.286Z,11.90
2019-04-21T07:29:27.220Z,11.93
2019-04-21T07:32:04.391Z,12.77
2019-04-21T07:34:33.417Z,12.07
2019-04-21T07:37:01.005Z,10.93
2019-04-21T07:39:29.957Z,11.97
2019-04-21T07:42:02.189Z,11.95
2019-04-21T07:44:31.872Z,13.23
2019-04-21T07:47:01.052Z,11.73
2019-04-21T07:49:57.507Z,13.05
2019-04-21T07:52:48.702Z,11.97
2019-04-21T07:55:22.093Z,11.83
2019-04-21T07:57:36.692Z,12.47
2019-04-21T08:00:20.585Z,12.35
2019-04-21T08:02:40.367Z,12.00
2019-04-21T08:10:16.064Z,12.65
2019-04-21T08:12:48.141Z,12.90
2019-04-21T08:15:29.114Z,13.60
2019-04-21T08:18:07.074Z,13.90
2019-04-21T08:20:18.810Z,14.47
2019-04-21T08:25:28.481Z,13.67
2019-04-21T08:28:02.255Z,14.40
2019-04-21T08:30:31.986Z,14.30
2019-04-21T08:33:12.422Z,13.62
2019-04-21T08:35:52.951Z,14.33
2019-04-21T08:38:02.078Z,14.63
2019-04-21T08:40:36.132Z,14.18
2019-04-21T08:43:10.938Z,14.55
2019-04-21T08:45:41.594Z,15.53
2019-04-21T08:48:14.685Z,15.65
2019-04-21T08:50:44.133Z,14.65
2019-04-21T08:53:12.553Z,15.13
2019-04-21T08:56:12.194Z,14.25
2019-04-21T08:58:59.193Z,16.23
2019-04-21T09:01:44.569Z,15.72
2019-04-21T09:04:17.112Z,15.63
2019-04-21T09:09:17.885Z,14.73
2019-04-21T09:11:54.125Z,14.50
2019-04-21T09:14:25.478Z,16.07
2019-04-21T09:16:53.698Z,15.65
2019-04-21T09:19:38.511Z,15.98
2019-04-21T09:22:00.599Z,15.38
2019-04-21T09:24:26.767Z,15.05
2019-04-21T09:27:02.084Z,14.75
2019-04-21T09:29:25.295Z,14.73
2019-04-21T09:31:48.199Z,14.60
2019-04-21T09:34:24.887Z,15.23
2019-04-21T09:36:53.117Z,15.70
2019-04-21T09:39:24.506Z,15.57
2019-04-21T09:41:54.389Z,15.43
2019-04-21T09:44:30.608Z,14.50
2019-04-21T09:46:58.566Z,13.48
2019-04-21T09:49:31.224Z,13.65
2019-04-21T09:51:59.882Z,13.50
2019-04-21T09:54:35.153Z,12.40
2019-04-21T09:57:05.876Z,13.40
2019-04-21T09:59:38.268Z,11.73
2019-04-21T10:02:11.601Z,12.03
2019-04-21T10:04:35.833Z,11.73
2019-04-21T10:07:06.875Z,12.13
2019-04-21T10:09:37.688Z,11.75
2019-04-21T10:12:07.648Z,13.10
2019-04-21T10:14:38.680Z,13.40
2019-04-21T10:17:27.744Z,13.53
2019-04-21T10:19:58.754Z,13.40
2019-04-21T10:22:28.864Z,12.18
2019-04-21T10:24:58.984Z,11.97
2019-04-21T10:27:29.462Z,11.68
2019-04-21T10:29:59.231Z,11.90
2019-04-21T10:32:30.200Z,10.90
2019-04-21T10:35:01.139Z,10.38
2019-04-21T10:37:44.149Z,11.45
2019-04-21T10:40:03.556Z,10.43
2019-04-21T10:42:33.713Z,10.70
2019-04-21T10:45:05.089Z,11.90
2019-04-21T10:47:36.856Z,12.43
2019-04-21T10:50:08.645Z,11.83
2019-04-21T10:52:56.677Z,12.04
2019-04-21T10:55:45.071Z,13.00
2019-04-21T10:58:24.576Z,12.90
2019-04-21T11:01:04.284Z,12.73
2019-04-21T11:03:38.466Z,11.35
2019-04-21T11:06:08.674Z,11.50
2019-04-21T11:08:45.032Z,10.70
2019-04-21T11:11:12.115Z,11.03
2019-04-21T11:13:42.105Z,10.50
2019-04-21T11:16:13.062Z,10.65
2019-04-21T11:18:44.119Z,11.08
2019-04-21T11:21:14.208Z,10.63
2019-04-21T11:23:45.893Z,10.12
2019-04-21T11:26:16.093Z,10.20
2019-04-21T11:28:47.087Z,9.33
2019-04-21T11:31:18.782Z,9.97
2019-04-21T11:33:49.153Z,11.00
2019-04-21T11:36:19.468Z,10.90
2019-04-21T11:39:31.706Z,10.20
2019-04-21T11:41:52.140Z,10.08
2019-04-21T11:44:24.667Z,9.78
2019-04-21T11:46:54.414Z,10.05
2019-04-21T11:49:27.145Z,9.58
2019-04-21T11:51:56.542Z,9.97
2019-04-21T11:54:27.284Z,11.10
2019-04-21T11:56:59.819Z,9.48
2019-04-21T11:59:30.285Z,11.53
2019-04-21T12:02:03.526Z,10.80
2019-04-21T12:04:34.056Z,10.65
2019-04-21T12:07:04.996Z,10.43
2019-04-21T12:09:39.501Z,10.93
2019-04-21T12:12:09.842Z,10.82
2019-04-21T12:14:39.828Z,10.90
2019-04-21T12:17:10.065Z,10.13
2019-04-21T12:19:40.884Z,10.82
2019-04-21T12:22:19.306Z,10.65
2019-04-21T12:24:43.012Z,9.45
2019-04-21T12:27:14.021Z,10.40
2019-04-21T12:29:44.087Z,10.32
2019-04-21T12:32:33.841Z,11.23
2019-04-21T12:35:06.010Z,11.05
2019-04-21T12:37:37.158Z,10.43
2019-04-21T12:40:08.403Z,11.30
2019-04-21T12:42:40.861Z,10.03
2019-04-21T12:45:11.550Z,11.28
2019-04-21T12:47:41.902Z,9.67
2019-04-21T12:50:12.870Z,10.05
2019-04-21T12:52:45.324Z,10.12
2019-04-21T12:55:15.507Z,10.00
2019-04-21T12:57:45.727Z,10.70
2019-04-21T13:00:18.536Z,9.80
2019-04-21T13:02:48.220Z,10.57
2019-04-21T13:05:18.123Z,10.23
2019-04-21T13:07:49.098Z,9.85
2019-04-21T13:10:20.193Z,9.30
2019-04-21T13:12:50.189Z,9.63
2019-04-21T13:15:20.145Z,9.20
2019-04-21T13:17:50.602Z,9.33
2019-04-21T13:20:21.140Z,8.78
2019-04-21T13:22:52.260Z,8.80
2019-04-21T13:25:23.601Z,9.28
2019-04-21T13:27:54.463Z,9.23
2019-04-21T13:30:24.385Z,9.53
2019-04-21T13:32:55.482Z,9.20
2019-04-21T13:35:26.774Z,8.43
2019-04-21T13:37:58.305Z,9.93
2019-04-21T13:41:02.170Z,8.45
2019-04-21T13:43:20.940Z,8.08
2019-04-21T13:45:51.804Z,8.85
2019-04-21T13:48:22.411Z,8.18
2019-04-21T13:50:53.427Z,9.28
2019-04-21T13:53:24.898Z,8.10
2019-04-21T13:55:56.321Z,8.20
2019-04-21T13:58:26.415Z,7.83
2019-04-21T14:00:57.858Z,8.00
2019-04-21T14:03:29.141Z,7.28
2019-04-21T14:06:00.004Z,8.33
2019-04-21T14:08:49.150Z,8.73
2019-04-21T14:11:19.792Z,7.37
2019-04-21T14:13:50.677Z,7.78
2019-04-21T14:16:22.267Z,7.32
2019-04-21T14:18:52.162Z,7.33
2019-04-21T14:21:23.123Z,7.62
2019-04-21T14:23:54.267Z,7.37
2019-04-21T14:26:24.508Z,7.72
2019-04-21T14:28:54.668Z,7.50
2019-04-21T14:31:24.436Z,7.22
2019-04-21T14:33:54.457Z,7.60
2019-04-21T14:36:24.532Z,7.57
2019-04-21T14:38:54.557Z,7.83
2019-04-21T14:41:24.424Z,7.58
2019-04-21T14:43:55.122Z,7.80
2019-04-21T14:46:47.104Z,6.20
2019-04-21T14:49:33.200Z,7.40
2019-04-21T14:52:16.881Z,6.70
2019-04-21T14:54:51.905Z,7.00
2019-04-21T14:57:23.072Z,6.60
2019-04-21T14:59:53.107Z,6.65
2019-04-21T15:02:22.879Z,6.60
2019-04-21T15:04:53.622Z,6.35
2019-04-21T15:07:23.471Z,7.05
2019-04-21T15:10:02.471Z,5.95
2019-04-21T15:12:25.774Z,6.90
2019-04-21T15:14:56.022Z,6.60
2019-04-21T15:17:27.486Z,6.58
2019-04-21T15:20:04.038Z,6.80
2019-04-21T15:22:30.434Z,6.60
2019-04-21T15:25:00.715Z,6.00
2019-04-21T15:27:32.760Z,6.58
2019-04-21T15:30:02.948Z,6.37
2019-04-21T15:32:33.001Z,6.22
2019-04-21T15:35:04.057Z,5.72
2019-04-21T15:37:33.927Z,6.65
2019-04-21T15:40:14.819Z,6.83
2019-04-21T15:42:36.679Z,6.40
2019-04-21T15:45:06.701Z,6.17
2019-04-21T15:47:36.372Z,6.70
2019-04-21T15:50:11.997Z,6.47
2019-04-21T15:52:38.466Z,7.40
2019-04-21T15:55:12.752Z,6.17
2019-04-21T15:58:02.700Z,6.00
2019-04-21T16:00:44.948Z,6.15
2019-04-21T16:03:14.830Z,6.70
2019-04-21T16:05:44.595Z,7.30
2019-04-21T16:08:14.349Z,6.87
2019-04-21T16:10:52.110Z,6.25
2019-04-21T16:13:17.276Z,11.03
2019-04-21T16:15:48.457Z,6.58
2019-04-21T16:18:20.474Z,20.12
2019-04-21T16:20:51.644Z,7.12
2019-04-21T16:23:22.523Z,7.20
2019-04-21T16:25:52.729Z,7.67
2019-04-21T16:28:23.512Z,10.40
2019-04-21T16:30:54.325Z,6.47
2019-04-21T16:33:25.114Z,6.67
2019-04-21T16:35:55.954Z,7.17
2019-04-21T16:38:26.742Z,6.28
2019-04-21T16:41:01.013Z,6.70
2019-04-21T16:43:29.125Z,7.00
2019-04-21T16:45:59.088Z,7.00
2019-04-21T16:48:28.726Z,6.62
2019-04-21T16:50:59.520Z,6.37
2019-04-21T16:53:35.416Z,6.83
2019-04-21T16:56:13.567Z,6.20
2019-04-21T16:58:48.314Z,6.05
2019-04-21T17:01:22.366Z,6.55
2019-04-21T17:03:52.833Z,6.80
2019-04-21T17:06:22.930Z,6.83
2019-04-21T17:08:52.924Z,6.90
2019-04-21T17:13:54.394Z,5.83
2019-04-21T17:16:30.054Z,6.85
2019-04-21T17:16:50.826Z,5.97
2019-04-21T17:19:05.209Z,6.58
2019-04-21T17:21:28.064Z,6.40
2019-04-21T17:23:58.878Z,6.05
2019-04-21T17:26:29.130Z,6.50
2019-04-21T17:28:58.890Z,6.45
2019-04-21T17:31:28.900Z,6.50
2019-04-21T17:34:06.264Z,6.53
2019-04-21T17:36:30.069Z,6.45
2019-04-21T17:39:00.201Z,6.87
2019-04-21T17:41:41.198Z,7.12
2019-04-21T17:44:04.524Z,6.56
2019-04-21T17:46:44.169Z,6.67
2019-04-21T17:49:07.051Z,6.50
2019-04-21T17:52:08.961Z,7.10
2019-04-21T17:54:46.602Z,7.23
2019-04-21T17:57:31.700Z,7.17
2019-04-21T18:00:04.793Z,7.30
2019-04-21T18:02:46.035Z,7.15
2019-04-21T18:05:08.657Z,6.80
2019-04-21T18:07:38.959Z,6.47
2019-04-21T18:10:10.009Z,7.56
2019-04-21T18:12:36.190Z,6.60
2019-04-21T18:15:13.542Z,6.87
2019-04-21T18:17:26.729Z,6.97
2019-04-21T18:19:57.326Z,7.17
2019-04-21T18:22:54.679Z,7.30
2019-04-21T18:25:36.156Z,6.93
2019-04-21T18:27:56.632Z,8.00
2019-04-21T18:31:07.000Z,7.58
2019-04-21T18:33:43.901Z,8.07
2019-04-21T18:36:30.330Z,7.70
2019-04-21T18:39:27.569Z,7.00
2019-04-21T18:42:04.801Z,7.40
2019-04-21T18:45:06.531Z,7.03
2019-04-21T18:47:31.552Z,7.93
2019-04-21T18:50:05.970Z,7.97
2019-04-21T18:52:56.009Z,7.40
2019-04-21T18:55:27.651Z,7.87
2019-04-21T18:57:47.643Z,7.60
2019-04-21T19:00:24.432Z,9.13
2019-04-21T19:02:51.774Z,9.30
2019-04-21T19:05:24.190Z,8.80
2019-04-21T19:08:09.958Z,9.65
2019-04-21T19:10:49.820Z,10.00
2019-04-21T19:16:03.391Z,11.13
2019-04-21T19:20:51.304Z,11.07
2019-04-21T19:23:33.756Z,12.10
2019-04-21T19:26:04.991Z,12.33
2019-04-21T19:28:24.621Z,13.40
2019-04-21T19:31:05.129Z,13.77
2019-04-21T19:33:24.393Z,13.53
2019-04-21T19:35:43.481Z,15.05
2019-04-21T19:38:17.300Z,14.60
2019-04-21T19:41:03.319Z,17.85
2019-04-21T19:43:41.000Z,17.07
2019-04-21T19:46:09.821Z,18.00
2019-04-21T19:48:44.613Z,20.17
2019-04-21T19:51:13.050Z,19.50
2019-04-21T19:53:42.600Z,20.53
2019-04-21T19:55:56.551Z,20.73
2019-04-21T19:58:33.061Z,21.43
2019-04-21T20:00:59.648Z,21.80
2019-04-21T20:03:30.583Z,21.10
2019-04-21T20:06:10.522Z,21.63
2019-04-21T20:08:44.642Z,21.97
2019-04-21T20:11:28.166Z,21.10
2019-04-21T20:14:03.234Z,21.57
2019-04-21T20:16:35.194Z,20.23
2019-04-21T20:18:45.672Z,19.17
2019-04-21T20:21:12.153Z,20.40
2019-04-21T20:23:43.219Z,18.90
2019-04-21T20:26:15.178Z,20.27
2019-04-21T20:28:57.189Z,19.63
2019-04-21T20:31:31.608Z,18.57
2019-04-21T20:34:07.766Z,18.03
2019-04-21T20:36:41.806Z,18.10
2019-04-21T20:39:01.087Z,17.37
2019-04-21T20:41:36.750Z,17.27
2019-04-21T20:44:13.290Z,15.48
2019-04-21T20:46:38.863Z,16.20
2019-04-21T20:49:07.006Z,16.67
2019-04-21T20:51:41.771Z,15.77
2019-04-21T20:54:15.755Z,16.23
2019-04-21T20:56:55.805Z,14.90
2019-04-21T20:59:23.828Z,15.50
2019-04-21T21:01:49.426Z,15.10
2019-04-21T21:04:17.820Z,15.07
2019-04-21T21:07:04.536Z,14.45
2019-04-21T21:09:23.067Z,15.47
2019-04-21T21:12:19.186Z,16.17
2019-04-21T21:14:27.920Z,15.90
2019-04-21T21:17:04.366Z,15.60
2019-04-21T21:19:38.151Z,14.68
2019-04-21T21:21:59.141Z,14.70
2019-04-21T21:24:41.828Z,13.80
2019-04-21T21:27:09.164Z,15.17
2019-04-21T21:29:40.169Z,14.95
2019-04-21T21:32:16.783Z,14.70
2019-04-21T21:34:47.484Z,14.78
2019-04-21T21:37:26.847Z,14.60
2019-04-21T21:39:52.100Z,14.90
2019-04-21T21:42:06.133Z,15.65
2019-04-21T21:44:35.715Z,15.33
2019-04-21T21:47:23.098Z,15.40
2019-04-21T21:49:52.858Z,14.97
2019-04-21T21:52:22.239Z,16.02
2019-04-21T21:54:40.228Z,16.53
2019-04-21T21:57:10.322Z,16.87
2019-04-21T21:59:41.778Z,16.43
2019-04-21T22:02:17.152Z,16.57
2019-04-21T22:04:51.276Z,16.43
2019-04-21T22:07:17.797Z,16.50
2019-04-21T22:09:48.273Z,14.80
2019-04-21T22:12:18.187Z,15.50
2019-04-21T22:14:51.792Z,14.90
2019-04-21T22:17:34.651Z,15.47
2019-04-21T22:20:08.105Z,17.53
2019-04-21T22:22:36.264Z,17.40
2019-04-21T22:25:04.875Z,18.03
2019-04-21T22:27:25.589Z,18.27
2019-04-21T22:29:59.373Z,18.10
2019-04-21T22:32:29.453Z,17.48
2019-04-21T22:35:02.034Z,20.20
2019-04-21T22:37:41.546Z,20.50
2019-04-21T22:40:12.397Z,20.60
2019-04-21T22:42:44.445Z,21.03
2019-04-21T22:45:05.096Z,20.73
2019-04-21T22:47:38.175Z,21.20
2019-04-21T22:50:06.589Z,21.62
2019-04-21T22:52:37.488Z,20.57
2019-04-21T22:55:16.698Z,22.17
2019-04-21T22:57:47.835Z,22.20
2019-04-21T23:00:15.335Z,22.63
2019-04-21T23:02:47.084Z,21.40
2019-04-21T23:05:22.481Z,21.63
2019-04-21T23:07:54.842Z,23.73
2019-04-21T23:10:21.193Z,22.23
2019-04-21T23:12:52.197Z,22.80
2019-04-21T23:15:33.194Z,22.73
2019-04-21T23:18:14.378Z,23.44
2019-04-21T23:20:46.222Z,23.47
2019-04-21T23:23:16.154Z,24.63
2019-04-21T23:25:42.607Z,24.07
2019-04-21T23:28:15.411Z,24.57
2019-04-21T23:30:54.774Z,23.92
2019-04-21T23:33:08.217Z,23.87
2019-04-21T23:35:40.042Z,24.32
2019-04-21T23:38:08.369Z,24.07
2019-04-21T23:40:39.798Z,25.00
2019-04-21T23:43:16.805Z,25.87
2019-04-21T23:45:44.839Z,24.60
2019-04-21T23:48:26.060Z,25.93
2019-04-21T23:50:53.975Z,23.97
2019-04-21T23:53:17.377Z,25.57
2019-04-21T23:55:47.436Z,24.73
2019-04-21T23:58:22.260Z,25.60
